sensor_id;sensor_type;location;lat;lon;timestamp;P1;durP1;ratioP1;P2;durP2;ratioP2
51814;SDS011;37874;53.158;6.766;2023-06-01T00:01:31;4.18;;;2.00;;
51814;SDS011;37874;53.158;6.766;2023-06-01T00:03:58;5.93;;;2.17;;
51814;SDS011;37874;53.158;6.766;2023-06-01T00:06:25;5.15;;;1.98;;
51814;SDS011;37874;53.158;6.766;2023-06-01T00:08:54;4.18;;;2.20;;
51814;SDS011;37874;53.158;6.766;2023-06-01T00:11:20;4.60;;;1.90;;
51814;SDS011;37874;53.158;6.766;2023-06-01T00:13:46;3.58;;;1.83;;
51814;SDS011;37874;53.158;6.766;2023-06-01T00:16:13;4.72;;;2.00;;
51814;SDS011;37874;53.158;6.766;2023-06-01T00:18:39;6.10;;;2.10;;
51814;SDS011;37874;53.158;6.766;2023-06-01T00:21:05;6.13;;;2.42;;
51814;SDS011;37874;53.158;6.766;2023-06-01T00:23:30;5.07;;;2.22;;
51814;SDS011;37874;53.158;6.766;2023-06-01T00:25:56;4.65;;;2.03;;
51814;SDS011;37874;53.158;6.766;2023-06-01T00:28:22;4.38;;;1.90;;
51814;SDS011;37874;53.158;6.766;2023-06-01T00:30:48;4.43;;;1.95;;
51814;SDS011;37874;53.158;6.766;2023-06-01T00:33:14;4.40;;;2.15;;
51814;SDS011;37874;53.158;6.766;2023-06-01T00:35:40;5.68;;;2.20;;
51814;SDS011;37874;53.158;6.766;2023-06-01T00:38:05;4.25;;;2.20;;
51814;SDS011;37874;53.158;6.766;2023-06-01T00:40:33;4.60;;;2.05;;
51814;SDS011;37874;53.158;6.766;2023-06-01T00:42:59;5.32;;;2.35;;
51814;SDS011;37874;53.158;6.766;2023-06-01T00:45:25;5.07;;;2.10;;
51814;SDS011;37874;53.158;6.766;2023-06-01T00:47:51;4.40;;;2.10;;
51814;SDS011;37874;53.158;6.766;2023-06-01T00:50:18;5.22;;;2.17;;
51814;SDS011;37874;53.158;6.766;2023-06-01T00:52:43;5.28;;;2.20;;
51814;SDS011;37874;53.158;6.766;2023-06-01T00:55:10;4.32;;;2.30;;
51814;SDS011;37874;53.158;6.766;2023-06-01T00:57:36;6.50;;;2.17;;
51814;SDS011;37874;53.158;6.766;2023-06-01T01:00:03;3.50;;;1.90;;
51814;SDS011;37874;53.158;6.766;2023-06-01T01:02:35;4.78;;;2.35;;
51814;SDS011;37874;53.158;6.766;2023-06-01T01:05:03;5.22;;;2.33;;
51814;SDS011;37874;53.158;6.766;2023-06-01T01:10:13;3.65;;;2.17;;
51814;SDS011;37874;53.158;6.766;2023-06-01T01:18:00;5.68;;;2.40;;
51814;SDS011;37874;53.158;6.766;2023-06-01T01:20:29;6.32;;;2.42;;
51814;SDS011;37874;53.158;6.766;2023-06-01T01:28:32;4.82;;;2.17;;
51814;SDS011;37874;53.158;6.766;2023-06-01T01:31:03;5.18;;;2.35;;
51814;SDS011;37874;53.158;6.766;2023-06-01T01:33:31;4.78;;;2.13;;
51814;SDS011;37874;53.158;6.766;2023-06-01T01:35:58;4.88;;;2.15;;
51814;SDS011;37874;53.158;6.766;2023-06-01T01:38:25;4.60;;;2.22;;
51814;SDS011;37874;53.158;6.766;2023-06-01T01:40:51;4.45;;;2.20;;
51814;SDS011;37874;53.158;6.766;2023-06-01T01:43:18;4.55;;;2.40;;
51814;SDS011;37874;53.158;6.766;2023-06-01T01:45:45;5.43;;;2.05;;
51814;SDS011;37874;53.158;6.766;2023-06-01T01:48:20;5.10;;;2.72;;
51814;SDS011;37874;53.158;6.766;2023-06-01T01:50:53;5.35;;;2.20;;
51814;SDS011;37874;53.158;6.766;2023-06-01T01:53:23;6.38;;;2.50;;
51814;SDS011;37874;53.158;6.766;2023-06-01T01:55:51;5.85;;;2.40;;
51814;SDS011;37874;53.158;6.766;2023-06-01T01:58:18;4.22;;;1.85;;
51814;SDS011;37874;53.158;6.766;2023-06-01T02:00:43;5.75;;;2.28;;
51814;SDS011;37874;53.158;6.766;2023-06-01T02:03:14;7.03;;;2.30;;
51814;SDS011;37874;53.158;6.766;2023-06-01T02:05:40;7.10;;;2.30;;
51814;SDS011;37874;53.158;6.766;2023-06-01T02:08:06;5.47;;;2.10;;
51814;SDS011;37874;53.158;6.766;2023-06-01T02:10:34;5.13;;;2.13;;
51814;SDS011;37874;53.158;6.766;2023-06-01T02:13:00;4.57;;;2.10;;
51814;SDS011;37874;53.158;6.766;2023-06-01T02:15:26;4.85;;;2.20;;
51814;SDS011;37874;53.158;6.766;2023-06-01T02:17:52;6.80;;;2.20;;
51814;SDS011;37874;53.158;6.766;2023-06-01T02:20:18;3.97;;;2.00;;
51814;SDS011;37874;53.158;6.766;2023-06-01T02:22:45;4.82;;;2.20;;
51814;SDS011;37874;53.158;6.766;2023-06-01T02:25:12;5.03;;;2.20;;
51814;SDS011;37874;53.158;6.766;2023-06-01T02:27:38;4.10;;;2.13;;
51814;SDS011;37874;53.158;6.766;2023-06-01T02:30:03;3.90;;;1.92;;
51814;SDS011;37874;53.158;6.766;2023-06-01T02:32:31;4.10;;;1.90;;
51814;SDS011;37874;53.158;6.766;2023-06-01T02:34:57;3.88;;;2.00;;
51814;SDS011;37874;53.158;6.766;2023-06-01T02:37:23;4.05;;;2.28;;
51814;SDS011;37874;53.158;6.766;2023-06-01T02:39:49;4.40;;;2.15;;
51814;SDS011;37874;53.158;6.766;2023-06-01T02:42:15;4.90;;;2.30;;
51814;SDS011;37874;53.158;6.766;2023-06-01T02:44:41;4.30;;;2.05;;
51814;SDS011;37874;53.158;6.766;2023-06-01T02:47:07;3.80;;;2.13;;
51814;SDS011;37874;53.158;6.766;2023-06-01T02:49:33;3.78;;;1.80;;
51814;SDS011;37874;53.158;6.766;2023-06-01T02:51:58;4.28;;;1.90;;
51814;SDS011;37874;53.158;6.766;2023-06-01T02:54:24;6.30;;;2.30;;
51814;SDS011;37874;53.158;6.766;2023-06-01T02:56:50;4.05;;;1.80;;
51814;SDS011;37874;53.158;6.766;2023-06-01T02:59:15;3.97;;;2.10;;
51814;SDS011;37874;53.158;6.766;2023-06-01T03:01:49;4.68;;;1.73;;
51814;SDS011;37874;53.158;6.766;2023-06-01T03:04:15;3.80;;;2.03;;
51814;SDS011;37874;53.158;6.766;2023-06-01T03:06:42;3.83;;;1.90;;
51814;SDS011;37874;53.158;6.766;2023-06-01T03:09:08;4.53;;;2.15;;
51814;SDS011;37874;53.158;6.766;2023-06-01T03:11:41;4.88;;;2.03;;
51814;SDS011;37874;53.158;6.766;2023-06-01T03:14:07;5.03;;;1.80;;
51814;SDS011;37874;53.158;6.766;2023-06-01T03:16:33;4.45;;;2.10;;
51814;SDS011;37874;53.158;6.766;2023-06-01T03:19:00;3.58;;;1.70;;
51814;SDS011;37874;53.158;6.766;2023-06-01T03:21:25;4.93;;;2.08;;
51814;SDS011;37874;53.158;6.766;2023-06-01T03:23:52;3.50;;;1.75;;
51814;SDS011;37874;53.158;6.766;2023-06-01T03:26:18;6.10;;;2.00;;
51814;SDS011;37874;53.158;6.766;2023-06-01T03:28:46;3.40;;;1.70;;
51814;SDS011;37874;53.158;6.766;2023-06-01T03:31:11;3.42;;;1.75;;
51814;SDS011;37874;53.158;6.766;2023-06-01T03:33:37;7.20;;;1.98;;
51814;SDS011;37874;53.158;6.766;2023-06-01T03:36:04;5.68;;;2.08;;
51814;SDS011;37874;53.158;6.766;2023-06-01T03:38:30;3.28;;;1.60;;
51814;SDS011;37874;53.158;6.766;2023-06-01T03:40:55;3.78;;;1.75;;
51814;SDS011;37874;53.158;6.766;2023-06-01T03:43:21;2.90;;;1.65;;
51814;SDS011;37874;53.158;6.766;2023-06-01T03:45:47;3.38;;;1.65;;
51814;SDS011;37874;53.158;6.766;2023-06-01T03:48:12;3.72;;;1.80;;
51814;SDS011;37874;53.158;6.766;2023-06-01T03:50:38;3.92;;;1.95;;
51814;SDS011;37874;53.158;6.766;2023-06-01T03:53:04;3.35;;;1.75;;
51814;SDS011;37874;53.158;6.766;2023-06-01T03:55:30;3.85;;;1.80;;
51814;SDS011;37874;53.158;6.766;2023-06-01T03:57:55;6.40;;;1.90;;
51814;SDS011;37874;53.158;6.766;2023-06-01T04:00:22;4.75;;;1.80;;
51814;SDS011;37874;53.158;6.766;2023-06-01T04:02:50;3.40;;;1.58;;
51814;SDS011;37874;53.158;6.766;2023-06-01T04:05:17;3.67;;;1.80;;
51814;SDS011;37874;53.158;6.766;2023-06-01T04:07:47;4.07;;;1.80;;
51814;SDS011;37874;53.158;6.766;2023-06-01T04:10:14;4.03;;;2.10;;
51814;SDS011;37874;53.158;6.766;2023-06-01T04:12:43;4.22;;;1.80;;
51814;SDS011;37874;53.158;6.766;2023-06-01T04:15:11;3.97;;;1.80;;
51814;SDS011;37874;53.158;6.766;2023-06-01T04:17:38;4.53;;;1.90;;
51814;SDS011;37874;53.158;6.766;2023-06-01T04:20:04;3.35;;;1.83;;
51814;SDS011;37874;53.158;6.766;2023-06-01T04:22:31;3.95;;;1.75;;
51814;SDS011;37874;53.158;6.766;2023-06-01T04:24:58;3.92;;;1.80;;
51814;SDS011;37874;53.158;6.766;2023-06-01T04:27:23;3.28;;;1.63;;
51814;SDS011;37874;53.158;6.766;2023-06-01T04:29:49;3.75;;;1.80;;
51814;SDS011;37874;53.158;6.766;2023-06-01T04:32:16;4.82;;;2.17;;
51814;SDS011;37874;53.158;6.766;2023-06-01T04:34:46;4.82;;;1.92;;
51814;SDS011;37874;53.158;6.766;2023-06-01T04:37:15;3.70;;;1.92;;
51814;SDS011;37874;53.158;6.766;2023-06-01T04:39:40;2.80;;;1.40;;
51814;SDS011;37874;53.158;6.766;2023-06-01T04:42:10;5.35;;;2.03;;
51814;SDS011;37874;53.158;6.766;2023-06-01T04:44:38;4.53;;;1.90;;
51814;SDS011;37874;53.158;6.766;2023-06-01T04:47:04;4.88;;;1.95;;
51814;SDS011;37874;53.158;6.766;2023-06-01T04:49:30;5.35;;;2.17;;
51814;SDS011;37874;53.158;6.766;2023-06-01T04:51:55;3.03;;;1.63;;
51814;SDS011;37874;53.158;6.766;2023-06-01T04:54:21;4.22;;;1.70;;
51814;SDS011;37874;53.158;6.766;2023-06-01T04:56:47;4.43;;;1.77;;
51814;SDS011;37874;53.158;6.766;2023-06-01T04:59:13;3.92;;;1.60;;
51814;SDS011;37874;53.158;6.766;2023-06-01T05:01:40;5.00;;;1.83;;
51814;SDS011;37874;53.158;6.766;2023-06-01T05:04:06;3.17;;;1.70;;
51814;SDS011;37874;53.158;6.766;2023-06-01T05:06:31;4.25;;;1.90;;
51814;SDS011;37874;53.158;6.766;2023-06-01T05:08:57;5.03;;;1.83;;
51814;SDS011;37874;53.158;6.766;2023-06-01T05:11:23;2.88;;;1.48;;
51814;SDS011;37874;53.158;6.766;2023-06-01T05:13:49;4.03;;;1.80;;
51814;SDS011;37874;53.158;6.766;2023-06-01T05:16:16;4.20;;;1.67;;
51814;SDS011;37874;53.158;6.766;2023-06-01T05:18:42;5.07;;;2.00;;
51814;SDS011;37874;53.158;6.766;2023-06-01T05:21:07;4.20;;;1.60;;
51814;SDS011;37874;53.158;6.766;2023-06-01T05:23:33;3.03;;;1.40;;
51814;SDS011;37874;53.158;6.766;2023-06-01T05:25:59;3.13;;;1.60;;
51814;SDS011;37874;53.158;6.766;2023-06-01T05:28:30;3.70;;;1.50;;
51814;SDS011;37874;53.158;6.766;2023-06-01T05:30:57;3.78;;;1.58;;
51814;SDS011;37874;53.158;6.766;2023-06-01T05:33:22;3.80;;;1.58;;
51814;SDS011;37874;53.158;6.766;2023-06-01T05:35:48;2.72;;;1.30;;
51814;SDS011;37874;53.158;6.766;2023-06-01T05:38:14;3.97;;;1.58;;
51814;SDS011;37874;53.158;6.766;2023-06-01T05:40:39;3.20;;;1.45;;
51814;SDS011;37874;53.158;6.766;2023-06-01T05:43:05;3.50;;;1.40;;
51814;SDS011;37874;53.158;6.766;2023-06-01T05:45:32;2.42;;;1.20;;
51814;SDS011;37874;53.158;6.766;2023-06-01T05:47:58;3.78;;;1.30;;
51814;SDS011;37874;53.158;6.766;2023-06-01T05:50:24;4.45;;;1.33;;
51814;SDS011;37874;53.158;6.766;2023-06-01T05:52:50;3.22;;;1.40;;
51814;SDS011;37874;53.158;6.766;2023-06-01T05:55:16;3.85;;;1.50;;
51814;SDS011;37874;53.158;6.766;2023-06-01T05:57:41;4.18;;;1.20;;
51814;SDS011;37874;53.158;6.766;2023-06-01T06:00:07;3.92;;;1.38;;
51814;SDS011;37874;53.158;6.766;2023-06-01T06:02:37;3.63;;;1.30;;
51814;SDS011;37874;53.158;6.766;2023-06-01T06:05:03;3.75;;;1.40;;
51814;SDS011;37874;53.158;6.766;2023-06-01T06:07:29;2.92;;;1.15;;
51814;SDS011;37874;53.158;6.766;2023-06-01T06:09:55;4.55;;;1.33;;
51814;SDS011;37874;53.158;6.766;2023-06-01T06:12:21;3.00;;;1.55;;
51814;SDS011;37874;53.158;6.766;2023-06-01T06:14:46;3.30;;;1.20;;
51814;SDS011;37874;53.158;6.766;2023-06-01T06:17:13;2.50;;;1.00;;
51814;SDS011;37874;53.158;6.766;2023-06-01T06:19:39;2.17;;;1.02;;
51814;SDS011;37874;53.158;6.766;2023-06-01T06:22:08;2.15;;;1.10;;
51814;SDS011;37874;53.158;6.766;2023-06-01T06:24:34;2.33;;;0.98;;
51814;SDS011;37874;53.158;6.766;2023-06-01T06:26:59;2.63;;;1.15;;
51814;SDS011;37874;53.158;6.766;2023-06-01T06:29:25;2.58;;;1.02;;
51814;SDS011;37874;53.158;6.766;2023-06-01T06:31:51;3.00;;;1.20;;
51814;SDS011;37874;53.158;6.766;2023-06-01T06:34:16;2.42;;;1.02;;
51814;SDS011;37874;53.158;6.766;2023-06-01T06:36:42;3.17;;;1.00;;
51814;SDS011;37874;53.158;6.766;2023-06-01T06:39:07;2.28;;;1.08;;
51814;SDS011;37874;53.158;6.766;2023-06-01T06:41:33;3.63;;;1.10;;
51814;SDS011;37874;53.158;6.766;2023-06-01T06:43:58;1.90;;;0.95;;
51814;SDS011;37874;53.158;6.766;2023-06-01T06:46:24;1.98;;;0.82;;
51814;SDS011;37874;53.158;6.766;2023-06-01T06:48:50;3.40;;;0.80;;
51814;SDS011;37874;53.158;6.766;2023-06-01T06:51:16;2.97;;;0.90;;
51814;SDS011;37874;53.158;6.766;2023-06-01T06:53:41;2.80;;;1.20;;
51814;SDS011;37874;53.158;6.766;2023-06-01T06:56:07;3.80;;;0.93;;
51814;SDS011;37874;53.158;6.766;2023-06-01T06:58:32;2.58;;;0.88;;
51814;SDS011;37874;53.158;6.766;2023-06-01T07:00:58;1.98;;;0.88;;
51814;SDS011;37874;53.158;6.766;2023-06-01T07:03:24;2.78;;;1.15;;
51814;SDS011;37874;53.158;6.766;2023-06-01T07:05:51;2.03;;;1.00;;
51814;SDS011;37874;53.158;6.766;2023-06-01T07:08:16;2.42;;;0.98;;
51814;SDS011;37874;53.158;6.766;2023-06-01T07:10:42;3.60;;;1.30;;
51814;SDS011;37874;53.158;6.766;2023-06-01T07:13:08;2.28;;;0.80;;
51814;SDS011;37874;53.158;6.766;2023-06-01T07:15:33;2.08;;;0.70;;
51814;SDS011;37874;53.158;6.766;2023-06-01T07:17:59;1.52;;;0.73;;
51814;SDS011;37874;53.158;6.766;2023-06-01T07:20:24;2.33;;;0.77;;
51814;SDS011;37874;53.158;6.766;2023-06-01T07:22:50;2.08;;;0.90;;
51814;SDS011;37874;53.158;6.766;2023-06-01T07:25:15;1.10;;;0.50;;
51814;SDS011;37874;53.158;6.766;2023-06-01T07:27:41;1.58;;;0.60;;
51814;SDS011;37874;53.158;6.766;2023-06-01T07:30:13;1.23;;;0.55;;
51814;SDS011;37874;53.158;6.766;2023-06-01T07:32:39;1.98;;;0.73;;
51814;SDS011;37874;53.158;6.766;2023-06-01T07:35:05;1.63;;;0.80;;
51814;SDS011;37874;53.158;6.766;2023-06-01T07:37:32;1.95;;;0.70;;
51814;SDS011;37874;53.158;6.766;2023-06-01T07:39:58;1.27;;;0.65;;
51814;SDS011;37874;53.158;6.766;2023-06-01T07:42:24;3.00;;;0.65;;
51814;SDS011;37874;53.158;6.766;2023-06-01T07:44:50;2.15;;;0.90;;
51814;SDS011;37874;53.158;6.766;2023-06-01T07:47:18;1.75;;;0.60;;
51814;SDS011;37874;53.158;6.766;2023-06-01T07:49:43;2.10;;;0.80;;
51814;SDS011;37874;53.158;6.766;2023-06-01T07:52:09;2.65;;;1.00;;
51814;SDS011;37874;53.158;6.766;2023-06-01T07:54:35;1.20;;;0.50;;
51814;SDS011;37874;53.158;6.766;2023-06-01T07:57:02;3.65;;;0.90;;
51814;SDS011;37874;53.158;6.766;2023-06-01T07:59:29;2.35;;;0.80;;
51814;SDS011;37874;53.158;6.766;2023-06-01T08:01:56;3.00;;;1.10;;
51814;SDS011;37874;53.158;6.766;2023-06-01T08:04:22;2.38;;;0.60;;
51814;SDS011;37874;53.158;6.766;2023-06-01T08:06:48;2.33;;;0.68;;
51814;SDS011;37874;53.158;6.766;2023-06-01T08:09:16;1.58;;;0.70;;
51814;SDS011;37874;53.158;6.766;2023-06-01T08:11:42;1.98;;;0.77;;
51814;SDS011;37874;53.158;6.766;2023-06-01T08:14:08;3.65;;;0.70;;
51814;SDS011;37874;53.158;6.766;2023-06-01T08:16:34;2.40;;;0.73;;
51814;SDS011;37874;53.158;6.766;2023-06-01T08:19:00;1.88;;;0.88;;
51814;SDS011;37874;53.158;6.766;2023-06-01T08:21:26;2.38;;;0.82;;
51814;SDS011;37874;53.158;6.766;2023-06-01T08:23:54;2.70;;;0.73;;
51814;SDS011;37874;53.158;6.766;2023-06-01T08:26:20;2.03;;;0.70;;
51814;SDS011;37874;53.158;6.766;2023-06-01T08:28:47;3.22;;;0.90;;
51814;SDS011;37874;53.158;6.766;2023-06-01T08:31:20;2.08;;;0.80;;
51814;SDS011;37874;53.158;6.766;2023-06-01T08:33:47;1.75;;;0.77;;
51814;SDS011;37874;53.158;6.766;2023-06-01T08:36:13;2.10;;;0.70;;
51814;SDS011;37874;53.158;6.766;2023-06-01T08:38:39;2.33;;;0.70;;
51814;SDS011;37874;53.158;6.766;2023-06-01T08:41:20;2.72;;;0.90;;
51814;SDS011;37874;53.158;6.766;2023-06-01T08:43:53;2.95;;;0.82;;
51814;SDS011;37874;53.158;6.766;2023-06-01T08:46:22;2.38;;;1.00;;
51814;SDS011;37874;53.158;6.766;2023-06-01T08:48:52;4.47;;;0.90;;
51814;SDS011;37874;53.158;6.766;2023-06-01T08:51:20;2.72;;;0.65;;
51814;SDS011;37874;53.158;6.766;2023-06-01T08:53:47;2.67;;;0.98;;
51814;SDS011;37874;53.158;6.766;2023-06-01T08:56:15;3.20;;;0.77;;
51814;SDS011;37874;53.158;6.766;2023-06-01T08:58:41;1.80;;;0.75;;
51814;SDS011;37874;53.158;6.766;2023-06-01T09:01:08;2.92;;;0.88;;
51814;SDS011;37874;53.158;6.766;2023-06-01T09:03:35;2.28;;;1.00;;
51814;SDS011;37874;53.158;6.766;2023-06-01T09:06:00;3.00;;;1.00;;
51814;SDS011;37874;53.158;6.766;2023-06-01T09:08:26;3.72;;;0.93;;
51814;SDS011;37874;53.158;6.766;2023-06-01T09:10:52;2.78;;;1.00;;
51814;SDS011;37874;53.158;6.766;2023-06-01T09:13:30;2.67;;;1.05;;
51814;SDS011;37874;53.158;6.766;2023-06-01T09:15:57;2.30;;;1.00;;
51814;SDS011;37874;53.158;6.766;2023-06-01T09:18:22;3.83;;;0.80;;
51814;SDS011;37874;53.158;6.766;2023-06-01T09:20:48;2.80;;;1.20;;
51814;SDS011;37874;53.158;6.766;2023-06-01T09:23:23;3.70;;;0.90;;
51814;SDS011;37874;53.158;6.766;2023-06-01T09:26:03;3.20;;;1.40;;
51814;SDS011;37874;53.158;6.766;2023-06-01T09:28:52;3.38;;;1.30;;
51814;SDS011;37874;53.158;6.766;2023-06-01T09:34:06;3.72;;;1.23;;
51814;SDS011;37874;53.158;6.766;2023-06-01T09:36:37;3.13;;;1.20;;
51814;SDS011;37874;53.158;6.766;2023-06-01T09:39:07;4.15;;;1.15;;
51814;SDS011;37874;53.158;6.766;2023-06-01T09:41:57;4.13;;;1.25;;
51814;SDS011;37874;53.158;6.766;2023-06-01T09:44:30;5.25;;;1.00;;
51814;SDS011;37874;53.158;6.766;2023-06-01T09:47:02;2.72;;;0.93;;
51814;SDS011;37874;53.158;6.766;2023-06-01T09:49:29;4.13;;;1.23;;
51814;SDS011;37874;53.158;6.766;2023-06-01T09:54:31;5.63;;;1.33;;
51814;SDS011;37874;53.158;6.766;2023-06-01T09:56:57;3.20;;;1.00;;
51814;SDS011;37874;53.158;6.766;2023-06-01T09:59:25;3.30;;;1.20;;
51814;SDS011;37874;53.158;6.766;2023-06-01T10:01:54;2.63;;;1.00;;
51814;SDS011;37874;53.158;6.766;2023-06-01T10:04:24;3.67;;;1.13;;
51814;SDS011;37874;53.158;6.766;2023-06-01T10:06:51;4.20;;;1.13;;
51814;SDS011;37874;53.158;6.766;2023-06-01T10:09:19;3.45;;;1.13;;
51814;SDS011;37874;53.158;6.766;2023-06-01T10:11:49;5.80;;;1.25;;
51814;SDS011;37874;53.158;6.766;2023-06-01T10:14:18;5.18;;;1.52;;
51814;SDS011;37874;53.158;6.766;2023-06-01T10:16:45;3.70;;;1.17;;
51814;SDS011;37874;53.158;6.766;2023-06-01T10:19:13;3.42;;;1.10;;
51814;SDS011;37874;53.158;6.766;2023-06-01T10:21:38;5.93;;;1.50;;
51814;SDS011;37874;53.158;6.766;2023-06-01T10:24:07;3.50;;;1.10;;
51814;SDS011;37874;53.158;6.766;2023-06-01T10:26:35;3.75;;;1.15;;
51814;SDS011;37874;53.158;6.766;2023-06-01T10:29:09;3.25;;;1.10;;
51814;SDS011;37874;53.158;6.766;2023-06-01T10:31:38;3.22;;;1.10;;
51814;SDS011;37874;53.158;6.766;2023-06-01T10:34:06;3.50;;;1.25;;
51814;SDS011;37874;53.158;6.766;2023-06-01T10:39:27;3.88;;;1.10;;
51814;SDS011;37874;53.158;6.766;2023-06-01T10:41:58;5.88;;;1.23;;
51814;SDS011;37874;53.158;6.766;2023-06-01T10:52:27;6.45;;;1.25;;
51814;SDS011;37874;53.158;6.766;2023-06-01T11:00:24;3.55;;;1.10;;
51814;SDS011;37874;53.158;6.766;2023-06-01T11:03:00;5.43;;;1.42;;
51814;SDS011;37874;53.158;6.766;2023-06-01T11:08:05;5.50;;;1.25;;
51814;SDS011;37874;53.158;6.766;2023-06-01T11:13:28;3.22;;;1.15;;
51814;SDS011;37874;53.158;6.766;2023-06-01T11:21:19;5.90;;;1.50;;
51814;SDS011;37874;53.158;6.766;2023-06-01T11:23:46;4.10;;;1.17;;
51814;SDS011;37874;53.158;6.766;2023-06-01T11:26:14;8.30;;;1.40;;
51814;SDS011;37874;53.158;6.766;2023-06-01T11:28:44;3.63;;;1.15;;
51814;SDS011;37874;53.158;6.766;2023-06-01T11:31:14;3.53;;;0.95;;
51814;SDS011;37874;53.158;6.766;2023-06-01T11:33:41;2.78;;;0.98;;
51814;SDS011;37874;53.158;6.766;2023-06-01T11:36:21;3.88;;;1.20;;
51814;SDS011;37874;53.158;6.766;2023-06-01T11:38:49;3.40;;;1.13;;
51814;SDS011;37874;53.158;6.766;2023-06-01T11:41:16;3.13;;;1.10;;
51814;SDS011;37874;53.158;6.766;2023-06-01T11:43:43;5.43;;;1.10;;
51814;SDS011;37874;53.158;6.766;2023-06-01T11:46:09;5.07;;;1.20;;
51814;SDS011;37874;53.158;6.766;2023-06-01T11:48:35;3.60;;;1.00;;
51814;SDS011;37874;53.158;6.766;2023-06-01T11:51:01;3.33;;;1.23;;
51814;SDS011;37874;53.158;6.766;2023-06-01T11:53:28;3.97;;;1.30;;
51814;SDS011;37874;53.158;6.766;2023-06-01T11:55:58;4.40;;;1.10;;
51814;SDS011;37874;53.158;6.766;2023-06-01T11:58:27;3.97;;;1.20;;
51814;SDS011;37874;53.158;6.766;2023-06-01T12:00:54;4.28;;;1.40;;
51814;SDS011;37874;53.158;6.766;2023-06-01T12:03:21;3.60;;;1.40;;
51814;SDS011;37874;53.158;6.766;2023-06-01T12:05:49;4.03;;;1.10;;
51814;SDS011;37874;53.158;6.766;2023-06-01T12:08:16;2.97;;;1.17;;
51814;SDS011;37874;53.158;6.766;2023-06-01T12:10:47;3.38;;;1.10;;
51814;SDS011;37874;53.158;6.766;2023-06-01T12:13:16;3.70;;;1.48;;
51814;SDS011;37874;53.158;6.766;2023-06-01T12:15:43;3.95;;;1.38;;
51814;SDS011;37874;53.158;6.766;2023-06-01T12:18:09;4.18;;;1.20;;
51814;SDS011;37874;53.158;6.766;2023-06-01T12:20:36;3.60;;;1.13;;
51814;SDS011;37874;53.158;6.766;2023-06-01T12:25:37;3.85;;;1.00;;
51814;SDS011;37874;53.158;6.766;2023-06-01T12:28:13;5.05;;;1.40;;
51814;SDS011;37874;53.158;6.766;2023-06-01T12:30:38;4.43;;;1.15;;
51814;SDS011;37874;53.158;6.766;2023-06-01T12:33:04;3.45;;;0.90;;
51814;SDS011;37874;53.158;6.766;2023-06-01T12:35:30;6.30;;;1.50;;
51814;SDS011;37874;53.158;6.766;2023-06-01T12:38:06;2.88;;;1.10;;
51814;SDS011;37874;53.158;6.766;2023-06-01T12:40:37;2.60;;;0.90;;
51814;SDS011;37874;53.158;6.766;2023-06-01T12:43:04;3.35;;;1.17;;
51814;SDS011;37874;53.158;6.766;2023-06-01T12:45:36;3.75;;;0.95;;
51814;SDS011;37874;53.158;6.766;2023-06-01T12:48:05;3.78;;;1.10;;
51814;SDS011;37874;53.158;6.766;2023-06-01T12:50:31;3.42;;;1.10;;
51814;SDS011;37874;53.158;6.766;2023-06-01T12:52:57;2.80;;;1.10;;
51814;SDS011;37874;53.158;6.766;2023-06-01T12:55:22;3.17;;;1.13;;
51814;SDS011;37874;53.158;6.766;2023-06-01T12:57:52;3.53;;;1.30;;
51814;SDS011;37874;53.158;6.766;2023-06-01T13:00:18;3.35;;;1.20;;
51814;SDS011;37874;53.158;6.766;2023-06-01T13:02:44;3.08;;;0.90;;
51814;SDS011;37874;53.158;6.766;2023-06-01T13:05:14;3.67;;;1.15;;
51814;SDS011;37874;53.158;6.766;2023-06-01T13:07:42;3.60;;;1.33;;
51814;SDS011;37874;53.158;6.766;2023-06-01T13:10:08;3.83;;;1.20;;
51814;SDS011;37874;53.158;6.766;2023-06-01T13:12:35;2.38;;;1.00;;
51814;SDS011;37874;53.158;6.766;2023-06-01T13:15:01;3.03;;;1.30;;
51814;SDS011;37874;53.158;6.766;2023-06-01T13:17:28;3.38;;;1.20;;
51814;SDS011;37874;53.158;6.766;2023-06-01T13:19:53;3.33;;;1.23;;
51814;SDS011;37874;53.158;6.766;2023-06-01T13:22:19;3.35;;;1.25;;
51814;SDS011;37874;53.158;6.766;2023-06-01T13:24:46;5.00;;;1.20;;
51814;SDS011;37874;53.158;6.766;2023-06-01T13:27:12;3.58;;;1.27;;
51814;SDS011;37874;53.158;6.766;2023-06-01T13:29:38;4.05;;;1.40;;
51814;SDS011;37874;53.158;6.766;2023-06-01T13:32:03;4.63;;;1.33;;
51814;SDS011;37874;53.158;6.766;2023-06-01T13:34:29;4.13;;;1.27;;
51814;SDS011;37874;53.158;6.766;2023-06-01T13:36:55;4.20;;;1.20;;
51814;SDS011;37874;53.158;6.766;2023-06-01T13:39:22;4.00;;;0.90;;
51814;SDS011;37874;53.158;6.766;2023-06-01T13:41:48;2.25;;;1.17;;
51814;SDS011;37874;53.158;6.766;2023-06-01T13:44:14;2.67;;;1.17;;
51814;SDS011;37874;53.158;6.766;2023-06-01T13:46:40;5.25;;;1.33;;
51814;SDS011;37874;53.158;6.766;2023-06-01T13:49:05;3.58;;;1.00;;
51814;SDS011;37874;53.158;6.766;2023-06-01T13:51:32;4.47;;;1.20;;
51814;SDS011;37874;53.158;6.766;2023-06-01T13:53:58;2.58;;;1.00;;
51814;SDS011;37874;53.158;6.766;2023-06-01T13:56:24;3.88;;;1.20;;
51814;SDS011;37874;53.158;6.766;2023-06-01T13:58:50;3.33;;;1.02;;
51814;SDS011;37874;53.158;6.766;2023-06-01T14:01:15;3.85;;;1.05;;
51814;SDS011;37874;53.158;6.766;2023-06-01T14:03:41;3.25;;;1.00;;
51814;SDS011;37874;53.158;6.766;2023-06-01T14:06:07;4.40;;;1.10;;
51814;SDS011;37874;53.158;6.766;2023-06-01T14:08:33;3.85;;;1.05;;
51814;SDS011;37874;53.158;6.766;2023-06-01T14:10:59;3.08;;;1.00;;
51814;SDS011;37874;53.158;6.766;2023-06-01T14:13:26;4.53;;;1.20;;
51814;SDS011;37874;53.158;6.766;2023-06-01T14:15:51;4.18;;;1.20;;
51814;SDS011;37874;53.158;6.766;2023-06-01T14:18:17;3.50;;;1.00;;
51814;SDS011;37874;53.158;6.766;2023-06-01T14:20:42;3.38;;;1.02;;
51814;SDS011;37874;53.158;6.766;2023-06-01T14:23:08;4.22;;;1.15;;
51814;SDS011;37874;53.158;6.766;2023-06-01T14:25:34;3.90;;;0.90;;
51814;SDS011;37874;53.158;6.766;2023-06-01T14:27:59;5.93;;;1.30;;
51814;SDS011;37874;53.158;6.766;2023-06-01T14:30:25;3.42;;;1.10;;
51814;SDS011;37874;53.158;6.766;2023-06-01T14:32:52;2.58;;;1.00;;
51814;SDS011;37874;53.158;6.766;2023-06-01T14:35:17;2.03;;;0.75;;
51814;SDS011;37874;53.158;6.766;2023-06-01T14:37:44;3.88;;;0.70;;
51814;SDS011;37874;53.158;6.766;2023-06-01T14:40:10;2.50;;;0.90;;
51814;SDS011;37874;53.158;6.766;2023-06-01T14:42:39;2.67;;;0.80;;
51814;SDS011;37874;53.158;6.766;2023-06-01T14:45:05;2.20;;;0.80;;
51814;SDS011;37874;53.158;6.766;2023-06-01T14:47:31;2.75;;;0.80;;
51814;SDS011;37874;53.158;6.766;2023-06-01T14:49:57;3.22;;;0.68;;
51814;SDS011;37874;53.158;6.766;2023-06-01T14:52:23;3.65;;;0.80;;
51814;SDS011;37874;53.158;6.766;2023-06-01T14:54:48;2.00;;;0.70;;
51814;SDS011;37874;53.158;6.766;2023-06-01T14:57:14;2.35;;;0.88;;
51814;SDS011;37874;53.158;6.766;2023-06-01T14:59:40;3.30;;;0.90;;
51814;SDS011;37874;53.158;6.766;2023-06-01T15:02:06;2.65;;;0.80;;
51814;SDS011;37874;53.158;6.766;2023-06-01T15:04:32;4.68;;;0.82;;
51814;SDS011;37874;53.158;6.766;2023-06-01T15:06:59;2.55;;;0.80;;
51814;SDS011;37874;53.158;6.766;2023-06-01T15:09:24;1.65;;;0.63;;
51814;SDS011;37874;53.158;6.766;2023-06-01T15:11:51;2.25;;;0.70;;
51814;SDS011;37874;53.158;6.766;2023-06-01T15:14:16;4.47;;;0.77;;
51814;SDS011;37874;53.158;6.766;2023-06-01T15:16:42;2.33;;;0.75;;
51814;SDS011;37874;53.158;6.766;2023-06-01T15:19:08;3.88;;;0.90;;
51814;SDS011;37874;53.158;6.766;2023-06-01T15:21:34;2.20;;;0.77;;
51814;SDS011;37874;53.158;6.766;2023-06-01T15:24:00;1.98;;;0.70;;
51814;SDS011;37874;53.158;6.766;2023-06-01T15:26:26;1.90;;;0.70;;
51814;SDS011;37874;53.158;6.766;2023-06-01T15:28:52;3.78;;;1.00;;
51814;SDS011;37874;53.158;6.766;2023-06-01T15:31:17;1.98;;;0.65;;
51814;SDS011;37874;53.158;6.766;2023-06-01T15:33:44;2.78;;;0.70;;
51814;SDS011;37874;53.158;6.766;2023-06-01T15:36:09;1.77;;;0.52;;